Darstellungsparameter: Aktuell verwendete Einstellungen:
Skalierung der Graphiken ... ?
xyx+y,   Skalierungsfaktor:      Skalierung: Modus: x, Faktor: 1
Darstellungszeitraum ... ?
Vom - - bis: - -   Zeitraum: 13.05.2021 - 13.05.2021
Min/Max/Avg-Anzeige ... ?
Zeige MMA aktuell
Zeige MMA Monat
Zeige MMA alles
Zeige --A aktuell
Zeige --A Monat
Zeige --A alles
Keine MMA-Anzeige
MMA:
Average (ber die Originaldaten)
MMA-Basis: 13.05.2021 - 13.05.2021
Quicknavigation für Darstellung... ?
Tage:      1T, 2T, 3T, 5T -1T -2T -3T -5T +1T +2T +3T +5T
Wochen: 1W, 2W, 3W -1W -2W -3W +1W +2W +3W
Monate: 1M, 3M, 6M -1M -3M -6M +1M +3M +6M
Jahre:    1J, 3J, 5J, 10J -1J -3J -5J -10J +1J +3J +5J +10J
Nutze für die Darstellung ... ?
Originaldaten oder Mittelwerte auf ...
Stundenbasis Tagesbasis Wochenbasis
Monatsbasis Jahresbasis      Datenbasis: Original-Daten
Darstellen als:
Statistik (Auto) Statistik J:M      Darstellung:

Der gewünschte Datumsbereich war nicht gültig/verfügbar und wurde korrigiert....
Das angegebene Enddatum (21.04.2026 23:59:59) liegt in der Zukunft.
Das angegebene Startdatum (21.04.2026 00:00:00) liegt in der Zukunft.


Zur Graphik,    zurück zur Übersicht aller Sensoren.
 
Tabellarische Datenbersicht: ?
 
Sensor: Nr:Datum:Temp:Abs-Feuchte:Windchill:Wind:
Aussen-T/F 1 13-05-2021 02:00:00 8.5 C 7.94 g/m*3 8.5 C 0 km/h
2 13-05-2021 02:05:00 8.4 C 7.89 g/m*3 8.4 C 0 km/h
3 13-05-2021 02:10:00 8.4 C 7.89 g/m*3 8.4 C 0 km/h
4 13-05-2021 02:15:00 8.3 C 7.84 g/m*3 8.3 C 0 km/h
5 13-05-2021 02:20:00 8.3 C 7.84 g/m*3 8.3 C 0 km/h
6 13-05-2021 02:25:00 8.2 C 7.79 g/m*3 8.2 C 0 km/h
7 13-05-2021 02:30:00 8.1 C 7.74 g/m*3 8.1 C 0 km/h
8 13-05-2021 02:35:00 8.1 C 7.74 g/m*3 8.1 C 0 km/h
9 13-05-2021 02:40:00 8 C 7.77 g/m*3 8 C 0 km/h
10 13-05-2021 02:45:00 7.9 C 7.72 g/m*3 7.9 C 1.6 km/h
11 13-05-2021 02:50:00 7.9 C 7.72 g/m*3 7.9 C 1.6 km/h
12 13-05-2021 02:55:00 8 C 7.77 g/m*3 8 C 0 km/h
13 13-05-2021 03:00:00 7.9 C 7.72 g/m*3 7.9 C 0 km/h
14 13-05-2021 03:05:00 7.8 C 7.67 g/m*3 7.8 C 1.6 km/h
15 13-05-2021 03:10:00 7.8 C 7.67 g/m*3 7.8 C 0 km/h
16 13-05-2021 03:15:00 7.7 C 7.62 g/m*3 7.7 C 0 km/h
17 13-05-2021 03:20:00 7.7 C 7.62 g/m*3 7.7 C 0 km/h
18 13-05-2021 03:25:00 7.7 C 7.62 g/m*3 7.7 C 0 km/h
19 13-05-2021 03:30:00 7.6 C 7.57 g/m*3 7.6 C 0 km/h
20 13-05-2021 03:35:00 7.5 C 7.52 g/m*3 7.5 C 0 km/h
21 13-05-2021 03:40:00 7.4 C 7.48 g/m*3 7.4 C 0 km/h
22 13-05-2021 03:45:00 7.4 C 7.48 g/m*3 7.4 C 0 km/h
23 13-05-2021 03:50:00 7.4 C 7.48 g/m*3 7.4 C 0 km/h
24 13-05-2021 03:55:00 7.4 C 7.55 g/m*3 7.4 C 0 km/h
25 13-05-2021 04:00:00 7.4 C 7.55 g/m*3 7.4 C 0 km/h
Sensor: Nr:Datum:Temp:Abs-Feuchte:Windchill:Wind:
Aussen-T/F 26 13-05-2021 04:05:00 7.4 C 7.55 g/m*3 7.4 C 0 km/h
27 13-05-2021 04:10:00 7.3 C 7.51 g/m*3 7.3 C 0 km/h
28 13-05-2021 04:15:00 7.3 C 7.51 g/m*3 7.3 C 0 km/h
29 13-05-2021 04:20:00 7.2 C 7.46 g/m*3 7.2 C 0 km/h
30 13-05-2021 04:25:00 7.2 C 7.46 g/m*3 7.2 C 0 km/h
31 13-05-2021 04:30:00 7.2 C 7.46 g/m*3 7.2 C 0 km/h
32 13-05-2021 04:35:00 7.2 C 7.46 g/m*3 7.2 C 0 km/h
33 13-05-2021 04:40:00 7.2 C 7.46 g/m*3 7.2 C 0 km/h
34 13-05-2021 04:45:00 7.2 C 7.46 g/m*3 7.2 C 0 km/h
35 13-05-2021 04:50:00 7.1 C 7.41 g/m*3 7.1 C 0 km/h
36 13-05-2021 04:55:00 7.1 C 7.41 g/m*3 7.1 C 0 km/h
37 13-05-2021 05:00:00 7 C 7.36 g/m*3 7 C 0 km/h
38 13-05-2021 05:05:00 7 C 7.36 g/m*3 7 C 1.6 km/h
39 13-05-2021 05:10:00 7 C 7.36 g/m*3 7 C 0 km/h
40 13-05-2021 05:15:00 6.9 C 7.31 g/m*3 6.9 C 0 km/h
41 13-05-2021 05:20:00 6.8 C 7.27 g/m*3 6.8 C 0 km/h
42 13-05-2021 05:25:00 6.7 C 7.22 g/m*3 6.7 C 0 km/h
43 13-05-2021 05:30:00 6.6 C 7.17 g/m*3 6.6 C 0 km/h
44 13-05-2021 05:35:00 6.6 C 7.17 g/m*3 6.6 C 0 km/h
45 13-05-2021 05:40:00 6.5 C 7.12 g/m*3 6.5 C 0 km/h
46 13-05-2021 05:45:00 6.4 C 7.08 g/m*3 6.4 C 0 km/h
47 13-05-2021 05:50:00 6.4 C 7.08 g/m*3 6.4 C 0 km/h
48 13-05-2021 05:55:00 6.5 C 7.12 g/m*3 6.5 C 0 km/h
49 13-05-2021 06:00:00 6.4 C 7.08 g/m*3 6.4 C 0 km/h
50 13-05-2021 06:05:00 6.4 C 7.08 g/m*3 6.4 C 0 km/h
Sensor: Nr:Datum:Temp:Abs-Feuchte:Windchill:Wind:
Aussen-T/F 51 13-05-2021 06:10:00 6.4 C 7.08 g/m*3 6.4 C 0 km/h
52 13-05-2021 06:15:00 6.5 C 7.2 g/m*3 6.5 C 3.2 km/h
53 13-05-2021 06:20:00 6.7 C 7.29 g/m*3 6.7 C 4.8 km/h
54 13-05-2021 06:25:00 6.8 C 7.34 g/m*3 6.8 C 3.2 km/h
55 13-05-2021 06:30:00 6.9 C 7.39 g/m*3 6.9 C 0 km/h
56 13-05-2021 06:35:00 6.9 C 7.39 g/m*3 6.9 C 0 km/h
57 13-05-2021 06:40:00 6.9 C 7.39 g/m*3 6.9 C 0 km/h
58 13-05-2021 06:45:00 6.9 C 7.39 g/m*3 6.9 C 0 km/h
59 13-05-2021 06:50:00 7 C 7.44 g/m*3 7 C 0 km/h
60 13-05-2021 06:55:00 7.1 C 7.49 g/m*3 7.1 C 0 km/h
61 13-05-2021 07:00:00 7.1 C 7.49 g/m*3 7.1 C 0 km/h
62 13-05-2021 07:05:00 7.2 C 7.54 g/m*3 7.2 C 1.6 km/h
63 13-05-2021 07:10:00 7.2 C 7.54 g/m*3 7.2 C 0 km/h
64 13-05-2021 07:15:00 7.2 C 7.54 g/m*3 7.2 C 0 km/h
65 13-05-2021 07:20:00 7.3 C 7.58 g/m*3 7.3 C 0 km/h
66 13-05-2021 07:25:00 7.3 C 7.58 g/m*3 7.3 C 0 km/h
67 13-05-2021 07:30:00 7.4 C 7.63 g/m*3 7.4 C 0 km/h
68 13-05-2021 07:35:00 7.4 C 7.63 g/m*3 7.4 C 0 km/h

Legende:
   Min
   Max


Maximal/Minimal-Werte vom 13.05.2021 - 13.05.2021

Sensor Min Max Avg
Temp
(Aussen-T/F)
6.4 °C
13-05-2021  05:45:00
8.5 °C
13-05-2021  02:00:00
7.29 °C
Abs-Feuchte
(Aussen-T/F)
7.08 g/m*3
13-05-2021  05:45:00
7.94 g/m*3
13-05-2021  02:00:00
7.38 g/m*3
Windchill
(Aussen-T/F)
6.4 C
13-05-2021  05:45:00
8.5 C
13-05-2021  02:00:00
7.18 C

Die Daten stammen von einer Davis Vantage Pro 2 Wetter-Station und werden unter Linux mit der Software wview2wettercgi und aufbereitet. Alle Angaben erfolgen ohne Gewähr für ihre Vollständigkeit oder Richtigkeit.
Kontakt: Rainer Krienke krienke@uni-koblenz.de . Meine Webseiten an der Uni Koblenz oder privat.
Version: $Revision: 0.78 $